createdAt,value
2018-07-12T00:02:15.979Z,7.17
2018-07-12T00:04:43.927Z,6.77
2018-07-12T00:07:11.899Z,7.60
2018-07-12T00:09:39.843Z,7.20
2018-07-12T00:12:07.799Z,6.50
2018-07-12T00:14:35.847Z,6.37
2018-07-12T00:17:03.823Z,6.37
2018-07-12T00:19:33.429Z,6.27
2018-07-12T00:22:01.428Z,6.83
2018-07-12T00:24:29.388Z,7.23
2018-07-12T00:26:57.333Z,6.07
2018-07-12T00:29:25.286Z,6.30
2018-07-12T00:31:53.218Z,6.87
2018-07-12T00:34:21.389Z,7.17
2018-07-12T00:36:49.362Z,7.27
2018-07-12T00:39:17.304Z,7.20
2018-07-12T00:41:45.256Z,6.50
2018-07-12T00:44:13.265Z,6.17
2018-07-12T00:46:41.229Z,7.67
2018-07-12T00:49:09.172Z,7.60
2018-07-12T00:51:37.113Z,8.10
2018-07-12T00:54:05.072Z,7.40
2018-07-12T00:56:33.012Z,6.73
2018-07-12T00:59:01.039Z,6.40
2018-07-12T01:01:29.016Z,6.73
2018-07-12T01:03:56.955Z,7.00
2018-07-12T01:06:24.982Z,6.37
2018-07-12T01:08:52.971Z,7.43
2018-07-12T01:11:20.947Z,7.10
2018-07-12T01:13:49.854Z,7.77
2018-07-12T01:16:17.954Z,7.50
2018-07-12T01:18:45.888Z,6.97
2018-07-12T01:21:13.840Z,6.80
2018-07-12T01:23:41.781Z,7.40
2018-07-12T01:26:09.736Z,7.07
2018-07-12T01:28:37.688Z,7.40
2018-07-12T01:31:05.654Z,6.43
2018-07-12T01:33:33.905Z,7.00
2018-07-12T01:36:01.936Z,8.07
2018-07-12T01:38:29.849Z,6.50
2018-07-12T01:40:57.799Z,7.07
2018-07-12T01:43:25.744Z,7.60
2018-07-12T01:45:53.734Z,8.73
2018-07-12T01:48:21.646Z,8.30
2018-07-12T01:50:49.683Z,8.30
2018-07-12T01:53:17.627Z,7.97
2018-07-12T01:55:45.584Z,8.83
2018-07-12T01:58:13.526Z,9.30
2018-07-12T02:00:41.541Z,10.03
2018-07-12T02:03:09.423Z,11.27
2018-07-12T02:05:37.415Z,9.90
2018-07-12T02:08:05.380Z,8.00
2018-07-12T02:10:33.342Z,9.03
2018-07-12T02:13:01.328Z,9.20
2018-07-12T02:15:31.552Z,7.83
2018-07-12T02:17:59.514Z,8.77
2018-07-12T02:20:27.447Z,7.40
2018-07-12T02:22:55.375Z,7.80
2018-07-12T02:25:23.323Z,7.50
2018-07-12T02:27:51.269Z,7.70
2018-07-12T02:30:19.232Z,7.57
2018-07-12T02:32:47.167Z,8.27
2018-07-12T02:35:15.135Z,7.83
2018-07-12T02:37:43.102Z,7.47
2018-07-12T02:40:11.065Z,8.13
2018-07-12T02:42:39.005Z,7.03
2018-07-12T02:45:06.956Z,7.77
2018-07-12T02:47:34.919Z,6.83
2018-07-12T02:50:02.935Z,7.23
2018-07-12T02:52:30.857Z,9.57
2018-07-12T02:54:58.811Z,8.80
2018-07-12T02:57:26.772Z,7.77
2018-07-12T02:59:54.713Z,7.93
2018-07-12T03:02:22.647Z,8.87
2018-07-12T03:04:50.612Z,7.93
2018-07-12T03:07:18.553Z,8.57
2018-07-12T03:09:46.492Z,7.67
2018-07-12T03:12:14.445Z,8.70
2018-07-12T03:14:42.384Z,7.77
2018-07-12T03:17:10.346Z,8.33
2018-07-12T03:19:38.301Z,9.33
2018-07-12T03:22:06.256Z,8.90
2018-07-12T03:24:34.212Z,9.20
2018-07-12T03:27:02.179Z,9.23
2018-07-12T03:29:30.204Z,9.13
2018-07-12T03:31:58.160Z,8.97
2018-07-12T03:34:26.102Z,8.30
2018-07-12T03:36:54.051Z,9.37
2018-07-12T03:39:22.024Z,9.23
2018-07-12T03:41:49.997Z,7.90
2018-07-12T03:44:17.947Z,8.93
2018-07-12T03:46:45.930Z,8.33
2018-07-12T03:49:13.867Z,8.93
2018-07-12T03:51:41.831Z,7.73
2018-07-12T03:54:09.800Z,8.73
2018-07-12T03:56:37.766Z,8.17
2018-07-12T03:59:05.711Z,7.33
2018-07-12T04:01:33.653Z,7.97
2018-07-12T04:04:01.607Z,9.30
2018-07-12T04:06:29.560Z,7.77
2018-07-12T04:08:57.512Z,8.47
2018-07-12T04:11:25.459Z,8.63
2018-07-12T04:13:53.420Z,8.90
2018-07-12T04:16:21.386Z,8.30
2018-07-12T04:18:49.324Z,8.47
2018-07-12T04:21:17.279Z,8.67
2018-07-12T04:23:45.450Z,9.10
2018-07-12T04:26:13.459Z,9.93
2018-07-12T04:28:41.387Z,8.33
2018-07-12T04:31:09.511Z,8.30
2018-07-12T04:33:37.443Z,8.90
2018-07-12T04:36:05.383Z,7.93
2018-07-12T04:38:33.414Z,8.83
2018-07-12T04:41:01.412Z,9.43
2018-07-12T04:43:29.359Z,9.63
2018-07-12T04:45:57.305Z,9.37
2018-07-12T04:48:25.285Z,8.83
2018-07-12T04:50:53.251Z,8.63
2018-07-12T04:53:21.202Z,10.27
2018-07-12T04:55:49.148Z,9.80
2018-07-12T04:58:17.167Z,9.07
2018-07-12T05:00:45.111Z,8.57
2018-07-12T05:03:13.068Z,9.17
2018-07-12T05:05:41.008Z,9.43
2018-07-12T05:08:08.988Z,7.80
2018-07-12T05:10:36.911Z,9.00
2018-07-12T05:13:04.880Z,9.07
2018-07-12T05:15:32.888Z,8.23
2018-07-12T05:18:01.106Z,7.67
2018-07-12T05:20:29.091Z,8.57
2018-07-12T05:22:57.041Z,8.43
2018-07-12T05:25:25.192Z,9.10
2018-07-12T05:27:53.140Z,6.83
2018-07-12T05:30:21.108Z,8.00
2018-07-12T05:32:49.094Z,7.67
2018-07-12T05:35:17.071Z,8.63
2018-07-12T05:37:45.963Z,8.43
2018-07-12T05:40:14.887Z,8.27
2018-07-12T05:42:43.784Z,7.67
2018-07-12T05:45:12.679Z,7.90
2018-07-12T05:47:41.560Z,7.83
2018-07-12T05:50:10.463Z,8.03
2018-07-12T05:52:39.389Z,7.37
2018-07-12T05:55:08.279Z,7.27
2018-07-12T05:57:37.213Z,7.47
2018-07-12T06:00:06.081Z,7.53
2018-07-12T06:02:35.038Z,8.33
2018-07-12T06:05:04.091Z,8.27
2018-07-12T06:07:33.058Z,8.23
2018-07-12T06:10:01.979Z,8.30
2018-07-12T06:12:30.891Z,8.33
2018-07-12T06:14:59.843Z,8.27
2018-07-12T06:17:28.779Z,7.77
2018-07-12T06:19:58.136Z,8.53
2018-07-12T06:22:27.095Z,7.77
2018-07-12T06:24:56.035Z,8.70
2018-07-12T06:27:24.943Z,8.37
2018-07-12T06:29:53.836Z,9.37
2018-07-12T06:32:22.740Z,7.93
2018-07-12T06:34:51.680Z,8.90
2018-07-12T06:37:20.617Z,9.43
2018-07-12T06:39:49.540Z,10.07
2018-07-12T06:42:18.533Z,8.90
2018-07-12T06:44:47.416Z,9.60
2018-07-12T06:47:16.338Z,9.10
2018-07-12T06:49:45.282Z,10.80
2018-07-12T06:52:14.309Z,10.40
2018-07-12T06:54:43.327Z,11.23
2018-07-12T06:57:12.273Z,9.33
2018-07-12T06:59:41.307Z,11.63
2018-07-12T07:02:10.368Z,9.60
2018-07-12T07:04:39.279Z,13.03
2018-07-12T07:07:08.269Z,11.53
2018-07-12T07:09:37.200Z,13.07
2018-07-12T07:12:06.161Z,13.20
2018-07-12T07:14:35.179Z,13.27
2018-07-12T07:17:04.219Z,12.93
2018-07-12T07:19:33.280Z,13.10
2018-07-12T07:22:02.202Z,13.33
2018-07-12T07:24:31.172Z,13.43
2018-07-12T07:27:00.120Z,13.30
2018-07-12T07:29:29.077Z,15.60
2018-07-12T07:31:57.980Z,15.03
2018-07-12T07:34:26.953Z,16.27
2018-07-12T07:36:55.903Z,15.47
2018-07-12T07:39:24.850Z,14.83
2018-07-12T07:41:54.030Z,14.63
2018-07-12T07:44:22.955Z,14.00
2018-07-12T07:46:51.892Z,14.13
2018-07-12T07:49:20.844Z,13.77
2018-07-12T07:51:49.737Z,15.00
2018-07-12T07:54:18.681Z,13.53
2018-07-12T07:56:47.639Z,15.53
2018-07-12T07:59:16.578Z,14.73
2018-07-12T08:01:45.515Z,16.37
2018-07-12T08:04:14.518Z,15.03
2018-07-12T08:06:43.465Z,13.73
2018-07-12T08:09:12.390Z,14.47
2018-07-12T08:11:41.355Z,16.50
2018-07-12T08:14:10.341Z,15.23
2018-07-12T08:16:39.258Z,15.10
2018-07-12T08:19:08.206Z,14.27
2018-07-12T08:21:37.124Z,14.97
2018-07-12T08:24:06.095Z,16.97
2018-07-12T08:26:35.027Z,13.93
2018-07-12T08:29:03.993Z,14.57
2018-07-12T08:31:32.913Z,14.47
2018-07-12T08:34:01.872Z,14.77
2018-07-12T08:36:30.815Z,14.50
2018-07-12T08:38:59.746Z,15.33
2018-07-12T08:41:28.693Z,14.77
2018-07-12T08:43:57.646Z,14.97
2018-07-12T08:46:26.585Z,15.83
2018-07-12T08:48:55.528Z,15.97
2018-07-12T08:51:24.535Z,14.83
2018-07-12T08:53:53.517Z,15.73
2018-07-12T08:56:22.461Z,15.87
2018-07-12T08:58:51.693Z,17.97
2018-07-12T09:01:20.667Z,14.83
2018-07-12T09:03:49.608Z,14.13
2018-07-12T09:06:18.522Z,13.77
2018-07-12T09:08:47.499Z,13.27
2018-07-12T09:11:16.428Z,14.90
2018-07-12T09:13:45.401Z,13.73
2018-07-12T09:16:14.407Z,12.67
2018-07-12T09:18:43.507Z,14.13
2018-07-12T09:21:12.590Z,13.00
2018-07-12T09:23:41.535Z,14.53
2018-07-12T09:26:10.434Z,13.50
2018-07-12T09:28:39.409Z,13.67
2018-07-12T09:31:08.864Z,11.77
2018-07-12T09:33:37.812Z,12.63
2018-07-12T09:36:06.836Z,12.87
2018-07-12T09:38:48.020Z,13.93
2018-07-12T09:41:17.197Z,14.27
2018-07-12T09:43:46.648Z,13.13
2018-07-12T09:46:15.900Z,11.47
2018-07-12T09:48:48.059Z,14.00
2018-07-12T09:51:17.055Z,12.20
2018-07-12T09:53:46.883Z,13.70
2018-07-12T09:56:15.919Z,12.00
2018-07-12T09:58:44.836Z,13.53
2018-07-12T10:01:19.229Z,12.60
2018-07-12T10:03:49.757Z,12.27
2018-07-12T10:06:23.852Z,11.00
2018-07-12T10:09:00.720Z,13.10
2018-07-12T10:11:34.959Z,12.43
2018-07-12T10:14:09.285Z,12.07
2018-07-12T10:16:44.256Z,13.20
2018-07-12T10:19:13.175Z,13.03
2018-07-12T10:21:42.100Z,11.10
2018-07-12T10:24:11.018Z,11.67
2018-07-12T10:26:39.999Z,10.43
2018-07-12T10:29:08.924Z,11.50
2018-07-12T10:31:37.835Z,9.93
2018-07-12T10:34:06.786Z,10.63
2018-07-12T10:36:35.710Z,10.43
2018-07-12T10:39:07.392Z,10.17
2018-07-12T10:41:36.428Z,10.10
2018-07-12T10:44:05.362Z,9.77
2018-07-12T10:46:34.320Z,10.33
2018-07-12T10:49:03.416Z,11.07
2018-07-12T10:51:32.432Z,11.63
2018-07-12T10:54:01.551Z,11.57
2018-07-12T10:56:30.502Z,10.60
2018-07-12T10:58:59.494Z,10.83
2018-07-12T11:01:28.615Z,10.90
2018-07-12T11:03:57.632Z,10.70
2018-07-12T11:06:26.717Z,11.20
2018-07-12T11:08:55.702Z,11.30
2018-07-12T11:11:24.762Z,12.00
2018-07-12T11:13:54.316Z,14.00
2018-07-12T11:16:23.336Z,15.80
2018-07-12T11:18:52.468Z,16.57
2018-07-12T11:21:21.414Z,16.53
2018-07-12T11:23:50.383Z,16.60
2018-07-12T11:26:19.339Z,19.67
2018-07-12T11:28:48.293Z,18.70
2018-07-12T11:31:17.250Z,21.43
2018-07-12T11:33:47.264Z,21.20
2018-07-12T11:36:16.295Z,20.47
2018-07-12T11:38:45.757Z,20.90
2018-07-12T11:41:15.094Z,20.07
2018-07-12T11:43:44.140Z,20.87
2018-07-12T11:46:14.306Z,22.40
2018-07-12T11:48:43.793Z,18.50
2018-07-12T11:51:13.092Z,20.30
2018-07-12T11:53:42.132Z,18.90
2018-07-12T11:56:11.185Z,16.33
2018-07-12T11:58:40.169Z,17.63
2018-07-12T12:01:09.164Z,16.40
2018-07-12T12:03:38.096Z,16.57
2018-07-12T12:06:07.199Z,18.50
2018-07-12T12:08:36.179Z,19.60
2018-07-12T12:11:05.134Z,19.07
2018-07-12T12:13:34.116Z,20.10
2018-07-12T12:16:03.065Z,20.67
2018-07-12T12:18:32.051Z,20.90
2018-07-12T12:21:01.078Z,21.63
2018-07-12T12:23:30.067Z,22.53
2018-07-12T12:25:59.036Z,22.83
2018-07-12T12:28:27.969Z,23.57
2018-07-12T12:30:56.913Z,22.53
2018-07-12T12:33:25.868Z,23.03
2018-07-12T12:35:54.823Z,23.60
2018-07-12T12:38:23.747Z,22.63
2018-07-12T12:40:52.714Z,24.93
2018-07-12T12:43:21.630Z,19.80
2018-07-12T12:45:50.553Z,17.97
2018-07-12T12:48:19.491Z,14.37
2018-07-12T12:50:48.520Z,13.80
2018-07-12T12:53:17.493Z,13.90
2018-07-12T12:55:46.613Z,14.10
2018-07-12T12:58:15.909Z,15.80
2018-07-12T13:00:44.865Z,14.20
2018-07-12T13:03:13.874Z,14.00
2018-07-12T13:05:42.864Z,12.53
2018-07-12T13:08:11.993Z,11.70
2018-07-12T13:10:40.954Z,10.57
2018-07-12T13:13:09.952Z,12.53
2018-07-12T13:15:38.928Z,13.23
2018-07-12T13:18:07.923Z,11.40
2018-07-12T13:20:36.857Z,11.13
2018-07-12T13:23:05.836Z,10.07
2018-07-12T13:25:34.796Z,8.90
2018-07-12T13:28:03.821Z,8.70
2018-07-12T13:30:32.747Z,9.30
2018-07-12T13:33:01.761Z,8.07
2018-07-12T13:35:30.688Z,8.27
2018-07-12T13:37:59.669Z,7.03
2018-07-12T13:40:28.753Z,8.27
2018-07-12T13:42:57.704Z,7.53
2018-07-12T13:45:26.695Z,7.30
2018-07-12T13:47:55.650Z,6.70
2018-07-12T13:50:24.617Z,7.27
2018-07-12T13:52:53.593Z,6.97
2018-07-12T13:55:22.580Z,6.90
2018-07-12T13:57:51.520Z,7.07
2018-07-12T14:00:20.481Z,6.73
2018-07-12T14:02:49.616Z,6.30
2018-07-12T14:05:18.610Z,6.37
2018-07-12T14:07:47.569Z,7.03
2018-07-12T14:10:16.499Z,7.07
2018-07-12T14:12:45.459Z,7.50
2018-07-12T14:15:14.399Z,7.37
2018-07-12T14:17:43.362Z,6.83
2018-07-12T14:20:12.302Z,7.63
2018-07-12T14:22:41.355Z,8.07
2018-07-12T14:25:10.374Z,8.00
2018-07-12T14:27:39.330Z,8.30
2018-07-12T14:30:08.295Z,9.43
2018-07-12T14:32:37.225Z,8.77
2018-07-12T14:35:06.160Z,9.70
2018-07-12T14:37:35.089Z,10.40
2018-07-12T14:40:03.997Z,9.57
2018-07-12T14:42:33.108Z,11.10
2018-07-12T14:45:02.121Z,9.43
2018-07-12T14:47:31.026Z,9.23
2018-07-12T14:49:59.975Z,10.47
2018-07-12T14:52:28.926Z,8.67
2018-07-12T14:54:57.870Z,9.60
2018-07-12T14:57:26.818Z,8.33
2018-07-12T14:59:55.760Z,7.37
2018-07-12T15:02:24.728Z,6.13
2018-07-12T15:04:53.618Z,5.77
2018-07-12T15:07:22.688Z,5.70
2018-07-12T15:09:51.585Z,6.03
2018-07-12T15:12:20.480Z,5.60
2018-07-12T15:14:49.410Z,6.03
2018-07-12T15:17:18.324Z,5.70
2018-07-12T15:19:47.240Z,7.07
2018-07-12T15:22:16.143Z,6.70
2018-07-12T15:24:45.047Z,6.03
2018-07-12T15:27:13.932Z,6.80
2018-07-12T15:29:42.847Z,6.33
2018-07-12T15:32:11.731Z,6.20
2018-07-12T15:34:40.672Z,4.67
2018-07-12T15:37:09.606Z,5.87
2018-07-12T15:39:38.468Z,5.23
2018-07-12T15:42:07.458Z,5.70
2018-07-12T15:44:36.366Z,5.77
2018-07-12T15:47:05.423Z,5.30
2018-07-12T15:49:34.307Z,5.63
2018-07-12T15:52:03.213Z,5.60
2018-07-12T15:54:32.100Z,6.67
2018-07-12T15:57:00.996Z,5.47
2018-07-12T15:59:29.899Z,5.30
2018-07-12T16:01:58.869Z,6.40
2018-07-12T16:04:27.756Z,6.50
2018-07-12T16:06:56.674Z,6.87
2018-07-12T16:09:25.572Z,6.30
2018-07-12T16:11:54.477Z,5.40
2018-07-12T16:14:23.367Z,5.50
2018-07-12T16:16:52.464Z,6.17
2018-07-12T16:19:21.376Z,7.03
2018-07-12T16:21:50.280Z,7.27
2018-07-12T16:24:19.156Z,5.83
2018-07-12T16:26:48.052Z,5.83
2018-07-12T16:29:17.005Z,5.93
2018-07-12T16:31:45.999Z,5.13
2018-07-12T16:34:14.949Z,5.77
2018-07-12T16:36:43.758Z,5.17
2018-07-12T16:39:12.651Z,6.03
2018-07-12T16:41:41.544Z,5.50
2018-07-12T16:44:10.428Z,6.03
2018-07-12T16:46:39.323Z,6.13
2018-07-12T16:49:08.355Z,5.63
2018-07-12T16:51:37.439Z,5.97
2018-07-12T16:54:06.331Z,5.73
2018-07-12T16:56:35.256Z,5.67
2018-07-12T16:59:04.205Z,5.60
2018-07-12T17:01:33.152Z,5.07
2018-07-12T17:04:02.052Z,5.43
2018-07-12T17:06:31.006Z,5.63
2018-07-12T17:08:59.904Z,5.70
2018-07-12T17:11:28.782Z,5.27
2018-07-12T17:13:57.685Z,4.93
2018-07-12T17:16:26.589Z,5.40
2018-07-12T17:18:55.460Z,6.80
2018-07-12T17:21:24.339Z,5.43
2018-07-12T17:23:53.240Z,5.83
2018-07-12T17:26:22.131Z,5.83
2018-07-12T17:28:51.102Z,5.23
2018-07-12T17:31:19.967Z,4.93
2018-07-12T17:33:48.950Z,6.53
2018-07-12T17:36:17.859Z,5.93
2018-07-12T17:38:46.763Z,5.37
2018-07-12T17:41:15.671Z,5.70
2018-07-12T17:43:44.603Z,5.27
2018-07-12T17:46:13.493Z,4.57
2018-07-12T17:48:42.383Z,5.23
2018-07-12T17:51:11.444Z,5.80
2018-07-12T17:53:40.350Z,5.67
2018-07-12T17:56:09.261Z,6.17
2018-07-12T17:58:38.377Z,5.97
2018-07-12T18:01:07.445Z,5.70
2018-07-12T18:03:36.388Z,5.67
2018-07-12T18:06:05.464Z,5.60
2018-07-12T18:08:34.381Z,6.00
2018-07-12T18:11:03.248Z,5.87
2018-07-12T18:13:32.265Z,5.80
2018-07-12T18:16:01.232Z,6.40
2018-07-12T18:18:30.112Z,5.47
2018-07-12T18:20:59.070Z,5.77
2018-07-12T18:23:28.088Z,5.80
2018-07-12T18:25:57.023Z,6.83
2018-07-12T18:28:25.935Z,4.93
2018-07-12T18:30:54.817Z,5.47
2018-07-12T18:33:23.708Z,6.30
2018-07-12T18:35:52.593Z,5.93
2018-07-12T18:38:21.468Z,5.53
2018-07-12T18:40:50.379Z,5.73
2018-07-12T18:43:19.249Z,7.00
2018-07-12T18:45:48.207Z,6.40
2018-07-12T18:48:17.087Z,6.63
2018-07-12T18:50:46.081Z,6.13
2018-07-12T18:53:15.134Z,6.67
2018-07-12T18:55:44.061Z,6.37
2018-07-12T18:58:12.920Z,6.03
2018-07-12T19:00:41.819Z,5.80
2018-07-12T19:03:10.772Z,6.80
2018-07-12T19:05:39.671Z,5.90
2018-07-12T19:08:08.643Z,6.10
2018-07-12T19:10:37.534Z,5.67
2018-07-12T19:13:06.479Z,5.53
2018-07-12T19:15:35.377Z,6.53
2018-07-12T19:18:04.269Z,6.23
2018-07-12T19:20:33.329Z,7.13
2018-07-12T19:23:02.231Z,6.33
2018-07-12T19:25:31.137Z,5.70
2018-07-12T19:28:00.020Z,5.13
2018-07-12T19:30:28.936Z,5.80
2018-07-12T19:32:57.910Z,5.23
2018-07-12T19:35:26.825Z,6.40
2018-07-12T19:37:55.708Z,5.90
2018-07-12T19:40:24.608Z,5.50
2018-07-12T19:42:53.515Z,5.00
2018-07-12T19:45:22.414Z,5.67
2018-07-12T19:47:51.295Z,6.33
2018-07-12T19:50:20.204Z,5.00
2018-07-12T19:52:49.101Z,5.43
2018-07-12T19:55:18.010Z,5.30
2018-07-12T19:57:46.904Z,5.40
2018-07-12T20:00:15.829Z,5.30
2018-07-12T20:02:44.722Z,4.53
2018-07-12T20:05:13.728Z,4.47
2018-07-12T20:07:42.658Z,5.20
2018-07-12T20:10:11.565Z,4.77
2018-07-12T20:12:40.479Z,4.77
2018-07-12T20:15:09.360Z,4.97
2018-07-12T20:17:38.257Z,5.17
2018-07-12T20:20:08.149Z,5.83
2018-07-12T20:22:37.060Z,5.50
2018-07-12T20:25:05.957Z,4.43
2018-07-12T20:27:35.054Z,5.70
2018-07-12T20:30:03.970Z,5.30
2018-07-12T20:32:32.887Z,5.20
2018-07-12T20:35:01.788Z,5.50
2018-07-12T20:37:30.696Z,5.53
2018-07-12T20:39:59.595Z,5.53
2018-07-12T20:42:28.635Z,5.97
2018-07-12T20:44:57.517Z,6.20
2018-07-12T20:47:26.403Z,5.27
2018-07-12T20:49:55.345Z,5.77
2018-07-12T20:52:24.240Z,5.47
2018-07-12T20:54:53.147Z,6.07
2018-07-12T20:57:22.031Z,6.03
2018-07-12T20:59:50.937Z,5.30
2018-07-12T21:02:19.880Z,5.10
2018-07-12T21:04:48.784Z,6.17
2018-07-12T21:07:17.749Z,5.23
2018-07-12T21:09:46.627Z,5.97
2018-07-12T21:12:15.529Z,5.57
2018-07-12T21:14:44.412Z,5.80
2018-07-12T21:17:13.396Z,5.33
2018-07-12T21:19:42.304Z,4.97
2018-07-12T21:22:11.226Z,5.47
2018-07-12T21:24:40.258Z,4.80
2018-07-12T21:27:09.147Z,5.37
2018-07-12T21:29:38.060Z,5.47
2018-07-12T21:32:06.935Z,5.70
2018-07-12T21:34:35.885Z,5.60
2018-07-12T21:37:04.993Z,5.37
2018-07-12T21:39:33.906Z,5.70
2018-07-12T21:42:02.803Z,5.43
2018-07-12T21:44:31.773Z,5.53
2018-07-12T21:47:00.608Z,5.13
2018-07-12T21:49:29.556Z,5.20
2018-07-12T21:51:58.465Z,5.27
2018-07-12T21:54:27.335Z,5.93
2018-07-12T21:56:56.317Z,5.40
2018-07-12T21:59:25.207Z,5.90
2018-07-12T22:01:54.128Z,5.53
2018-07-12T22:04:23.027Z,5.93
2018-07-12T22:07:21.268Z,5.80
2018-07-12T22:09:50.187Z,6.80
2018-07-12T22:12:19.081Z,6.07
2018-07-12T22:14:47.967Z,5.97
2018-07-12T22:17:16.887Z,6.60
2018-07-12T22:19:45.803Z,6.23
2018-07-12T22:22:14.750Z,6.90
2018-07-12T22:24:43.671Z,7.27
2018-07-12T22:27:12.594Z,7.53
2018-07-12T22:29:41.521Z,7.67
2018-07-12T22:32:10.496Z,7.57
2018-07-12T22:34:39.686Z,6.80
2018-07-12T22:37:08.566Z,7.30
2018-07-12T22:39:37.452Z,7.27
2018-07-12T22:42:12.932Z,7.03
2018-07-12T22:44:41.851Z,7.77
2018-07-12T22:47:10.730Z,6.93
2018-07-12T22:49:39.636Z,6.50
2018-07-12T22:52:08.541Z,6.90
2018-07-12T22:54:37.470Z,7.07
2018-07-12T22:57:06.461Z,6.93
2018-07-12T22:59:35.274Z,8.00
2018-07-12T23:02:04.182Z,7.50
2018-07-12T23:04:33.063Z,7.90
2018-07-12T23:07:01.969Z,7.90
2018-07-12T23:09:30.858Z,7.13
2018-07-12T23:11:59.761Z,7.67
2018-07-12T23:14:28.669Z,7.80
2018-07-12T23:16:57.534Z,7.03
2018-07-12T23:19:26.413Z,7.00
2018-07-12T23:21:56.193Z,6.87
2018-07-12T23:24:25.086Z,7.37
2018-07-12T23:26:53.993Z,7.37
2018-07-12T23:29:22.938Z,7.10
2018-07-12T23:31:51.867Z,8.50
2018-07-12T23:34:20.783Z,8.40
2018-07-12T23:36:49.740Z,7.23
2018-07-12T23:39:18.619Z,7.67
2018-07-12T23:41:47.582Z,9.07
2018-07-12T23:44:16.510Z,7.77
2018-07-12T23:46:45.388Z,9.40
2018-07-12T23:49:18.730Z,6.87
2018-07-12T23:51:47.640Z,7.03
2018-07-12T23:54:16.526Z,8.73
2018-07-12T23:56:45.462Z,8.17
2018-07-12T23:59:14.370Z,7.83
